createdAt,value
2022-12-17T00:50:08.058Z,17.48
2022-12-17T00:52:53.182Z,18.05
2022-12-17T00:55:41.901Z,17.33
2022-12-17T00:58:27.317Z,17.50
2022-12-17T01:01:20.743Z,18.95
2022-12-17T01:04:12.717Z,19.65
2022-12-17T01:06:58.023Z,21.27
2022-12-17T01:09:49.062Z,18.67
2022-12-17T01:12:34.582Z,20.73
2022-12-17T01:15:23.086Z,21.02
2022-12-17T01:18:10.758Z,18.45
2022-12-17T01:20:56.427Z,22.17
2022-12-17T01:23:55.518Z,22.30
2022-12-17T01:26:41.734Z,20.17
2022-12-17T01:29:27.170Z,19.83
2022-12-17T01:32:12.601Z,21.38
2022-12-17T01:34:57.612Z,21.15
2022-12-17T01:37:42.798Z,18.60
2022-12-17T01:40:31.660Z,20.80
2022-12-17T01:43:20.210Z,21.77
2022-12-17T01:46:08.542Z,22.77
2022-12-17T01:49:06.490Z,25.15
2022-12-17T01:51:54.870Z,27.20
2022-12-17T01:54:44.163Z,27.30
2022-12-17T01:57:29.971Z,25.35
2022-12-17T02:00:25.253Z,26.70
2022-12-17T02:03:10.996Z,25.63
2022-12-17T02:06:48.457Z,23.33
2022-12-17T02:10:18.863Z,24.85
2022-12-17T02:13:27.628Z,25.88
2022-12-17T02:16:30.785Z,24.98
2022-12-17T02:19:49.130Z,27.35
2022-12-17T02:23:04.815Z,27.20
2022-12-17T02:26:27.612Z,27.92
2022-12-17T02:29:19.904Z,27.65
2022-12-17T02:32:11.071Z,27.52
2022-12-17T02:35:08.691Z,29.40
2022-12-17T02:37:53.923Z,28.15
2022-12-17T02:40:47.024Z,27.85
2022-12-17T02:43:35.012Z,27.55
2022-12-17T02:46:21.208Z,27.83
2022-12-17T02:49:12.251Z,26.13
2022-12-17T02:52:20.269Z,24.30
2022-12-17T02:55:08.340Z,24.67
2022-12-17T02:57:59.491Z,23.40
2022-12-17T03:00:52.229Z,24.50
2022-12-17T03:03:43.845Z,24.65
2022-12-17T03:06:31.219Z,26.45
2022-12-17T03:09:16.568Z,26.67
2022-12-17T03:12:05.792Z,27.27
2022-12-17T03:14:50.808Z,28.00
2022-12-17T03:17:36.084Z,31.40
2022-12-17T03:20:22.462Z,30.45
2022-12-17T03:23:07.818Z,31.83
2022-12-17T03:25:53.127Z,30.17
2022-12-17T03:28:38.455Z,31.23
2022-12-17T03:31:23.972Z,32.88
2022-12-17T03:34:15.458Z,33.53
2022-12-17T03:37:00.558Z,29.63
2022-12-17T03:39:48.872Z,29.35
2022-12-17T03:42:36.831Z,29.15
2022-12-17T03:45:25.632Z,30.20
2022-12-17T03:48:11.133Z,29.95
2022-12-17T03:50:56.550Z,29.58
2022-12-17T03:53:42.086Z,30.52
2022-12-17T03:56:27.400Z,31.40
2022-12-17T03:59:12.715Z,30.50
2022-12-17T04:01:58.214Z,30.35
2022-12-17T04:04:49.616Z,30.33
2022-12-17T04:07:34.931Z,31.77
2022-12-17T04:10:20.415Z,30.27
2022-12-17T04:13:19.573Z,29.85
2022-12-17T04:16:08.148Z,28.60
2022-12-17T04:18:53.312Z,29.73
2022-12-17T04:21:38.684Z,28.45
2022-12-17T04:24:24.641Z,29.27
2022-12-17T04:27:10.115Z,30.30
2022-12-17T04:29:56.897Z,30.27
2022-12-17T04:32:48.390Z,31.38
2022-12-17T04:35:33.803Z,31.17
2022-12-17T04:38:19.102Z,30.10
2022-12-17T04:41:10.705Z,29.90
2022-12-17T04:44:01.262Z,28.30
2022-12-17T04:46:48.409Z,28.73
2022-12-17T04:49:36.866Z,29.25
2022-12-17T04:52:22.914Z,32.58
2022-12-17T04:55:08.217Z,31.88
2022-12-17T04:57:57.218Z,31.80
2022-12-17T05:00:42.661Z,30.05
2022-12-17T05:03:35.117Z,31.35
2022-12-17T05:06:22.247Z,33.95
2022-12-17T05:09:07.574Z,35.53
2022-12-17T05:11:52.995Z,34.70
2022-12-17T05:14:38.380Z,36.78
2022-12-17T05:17:27.202Z,39.13
2022-12-17T07:48:51.844Z,34.08
2022-12-17T07:51:53.823Z,33.97
2022-12-17T11:04:57.603Z,35.90
2022-12-17T11:08:00.102Z,37.65
2022-12-17T11:11:04.036Z,37.03
2022-12-17T11:14:13.993Z,38.00
2022-12-17T11:17:13.195Z,35.20
2022-12-17T11:20:38.458Z,38.13
2022-12-17T15:56:29.500Z,23.67
2022-12-17T17:36:42.735Z,23.77
2022-12-17T18:17:09.380Z,24.98
2022-12-17T21:01:16.220Z,21.27
2022-12-17T21:03:43.447Z,21.80
2022-12-17T21:06:20.237Z,20.92
2022-12-17T21:08:53.834Z,22.20
2022-12-17T21:11:27.270Z,22.50
2022-12-17T21:13:55.804Z,24.17
2022-12-17T21:16:30.191Z,25.42
2022-12-17T21:19:01.673Z,22.95
2022-12-17T21:21:34.214Z,23.35
2022-12-17T21:24:08.310Z,20.67
2022-12-17T21:29:08.916Z,23.65
2022-12-17T21:31:53.327Z,24.42
2022-12-17T21:36:51.664Z,20.08
2022-12-17T21:39:20.067Z,23.02
2022-12-17T21:42:11.431Z,24.85
2022-12-17T21:44:38.068Z,21.52
2022-12-17T21:47:10.290Z,22.83
2022-12-17T21:49:37.210Z,22.08
2022-12-17T21:52:07.589Z,23.80
2022-12-17T21:54:37.811Z,24.42
2022-12-17T21:57:07.923Z,24.20
2022-12-17T21:59:34.700Z,24.73
2022-12-17T22:02:03.998Z,21.98
2022-12-17T22:04:31.290Z,23.00
2022-12-17T22:07:08.135Z,24.45
2022-12-17T22:09:50.124Z,22.38
2022-12-17T22:12:43.818Z,22.10
2022-12-17T22:15:13.960Z,23.30
2022-12-17T22:17:42.508Z,23.05
2022-12-17T22:20:11.323Z,18.50
2022-12-17T22:22:38.192Z,23.65
2022-12-17T22:25:09.192Z,23.27
2022-12-17T22:27:38.842Z,22.65
2022-12-17T22:30:34.075Z,23.55
2022-12-17T22:33:02.457Z,21.60
2022-12-17T22:36:40.485Z,24.30
2022-12-17T22:43:42.578Z,22.25
2022-12-17T22:44:35.842Z,21.70
2022-12-17T22:44:49.042Z,22.15
2022-12-17T22:47:16.778Z,22.80
2022-12-17T22:49:44.281Z,23.20
2022-12-17T22:52:14.536Z,24.63
2022-12-17T22:54:48.609Z,23.27
2022-12-17T22:57:36.751Z,21.88
2022-12-17T23:00:22.731Z,22.55
2022-12-17T23:02:56.876Z,21.73
2022-12-17T23:07:53.424Z,19.80
2022-12-17T23:10:22.047Z,21.13
2022-12-17T23:12:54.130Z,22.90
2022-12-17T23:15:38.043Z,24.33
2022-12-17T23:18:10.791Z,21.67
2022-12-17T23:20:37.734Z,21.98
2022-12-17T23:23:10.304Z,21.50
2022-12-17T23:25:36.938Z,20.33
2022-12-17T23:28:03.999Z,20.98
2022-12-17T23:30:33.857Z,20.50
2022-12-17T23:33:00.861Z,20.10
2022-12-17T23:35:29.744Z,20.38
2022-12-17T23:37:56.943Z,19.92
2022-12-17T23:40:23.766Z,19.40
2022-12-17T23:42:50.788Z,17.33
2022-12-17T23:45:17.651Z,16.15
2022-12-17T23:47:48.164Z,20.67
2022-12-17T23:50:14.980Z,20.52
2022-12-17T23:52:46.053Z,19.90
2022-12-17T23:55:12.875Z,20.45
2022-12-17T23:57:39.935Z,19.13
